Aérodrome :
LOGIN :

S'inscrire | Disclaimer

   EN    FR    IT 

 










Légende :    VFR   VFR Marginal   IFR   IFR Intensif   IFR Très Intensif
Visi : 
Plafond : 
>= 8 km
>= 3000ft
5 à 8 km
1000 à 3000 ft
1500m à 5 km
500 à 1000 ft
800 à 1500m
200 à 500 ft
< 800m
< 200 ft
Symboles :   Orages  Brouillard  Fortes neiges  Fortes précipitations  Vent > 20 kt
SIGMETs :   Divers  Orages  Givrage  Turbulence  Onde Orograph.  Cendres Volcan.






- Altitude de l'aérodrome : 622 ft
- Code IATA : BRS


EGGD - Bristol Int.

DERNIER METAR :
  • 221950Z AUTO 10015KT 9999 FEW011 08/06 Q0990

METARs EXPIRÉS :
  • 221920Z AUTO 10016KT 9999 FEW011 08/06 Q0990
  • 221850Z 12013KT 9999 FEW012 08/06 Q0990
  • 221820Z 10015KT 9999 FEW012 08/06 Q0990
  • 221750Z 10015KT 9999 SCT008 08/07 Q0990
  • 221720Z 10014KT 9999 FEW013 08/07 Q0990

TAF TAF EGGD
Valide du 22 à 18h jusqu'au 23 à 18h UTC


221656Z 2218/2318 10010KT 9999 SCT007 BKN035
PROB30
TEMPO 2218/2223 7000 RA BKN007
BECMG 2223/2301 8000 -RA BKN007
TEMPO 2223/2318 3000 RADZ BR OVC003
PROB30
TEMPO 2302/2306 BKN001
PROB40
TEMPO 2306/2318 0600 FG BKN001
BECMG 2310/2313 04006KT
ATIS : +44 1275 473 666



MET'MAP, la Météo Aéronautique d'un coup d'oeil ! - Copyright ORBIFLY Décembre 2007 - Disclaimer

ORBIFLY MET'MAP TEAM :

Programmation & Développement : Alexandra Zaïnal
Conception & Développement : Baudouin d'Aumeries
Co-Programmation & Développement : Marc-Olivier Méhu
Soutien technique & logistique : Manuel Goepfert

Contact : metmap@orbifly.com




SOURCES & CREDITS :

   NOAA